createdAt,value
2022-09-06T00:00:50.859Z,18.4
2022-09-06T00:03:51.283Z,18.4
2022-09-06T00:06:51.320Z,18.4
2022-09-06T00:09:51.524Z,18.4
2022-09-06T00:12:51.734Z,18.4
2022-09-06T00:15:52.094Z,18.4
2022-09-06T00:18:52.214Z,18.4
2022-09-06T00:21:52.441Z,18.4
2022-09-06T00:24:52.647Z,18.4
2022-09-06T00:27:52.868Z,18.4
2022-09-06T00:30:53.215Z,18
2022-09-06T00:33:53.292Z,18
2022-09-06T00:36:53.518Z,18
2022-09-06T00:39:53.950Z,18
2022-09-06T00:42:54.017Z,18
2022-09-06T00:45:54.278Z,18
2022-09-06T00:48:54.411Z,18
2022-09-06T00:51:54.644Z,18
2022-09-06T00:54:54.873Z,18
2022-09-06T00:57:55.100Z,18
2022-09-06T01:00:55.304Z,18
2022-09-06T01:03:50.566Z,18
2022-09-06T01:06:50.779Z,18
2022-09-06T01:09:50.982Z,18
2022-09-06T01:12:51.204Z,18
2022-09-06T01:15:51.516Z,17.7
2022-09-06T01:18:51.649Z,17.7
2022-09-06T01:21:51.877Z,17.7
2022-09-06T01:24:52.097Z,17.7
2022-09-06T01:27:52.291Z,17.7
2022-09-06T01:30:52.739Z,17.7
2022-09-06T01:33:52.810Z,17.7
2022-09-06T01:37:10.764Z,17.7
2022-09-06T01:39:53.408Z,17.7
2022-09-06T01:42:53.461Z,17.7
2022-09-06T01:45:53.834Z,17.7
2022-09-06T01:48:53.829Z,17.7
2022-09-06T01:51:54.091Z,17.7
2022-09-06T01:54:54.325Z,17.7
2022-09-06T01:57:54.578Z,17.3
2022-09-06T02:00:54.760Z,17.3
2022-09-06T02:03:55.008Z,17.3
2022-09-06T02:06:55.234Z,17.3
2022-09-06T02:09:50.629Z,17.3
2022-09-06T02:12:50.651Z,17.3
2022-09-06T02:15:50.870Z,17.3
2022-09-06T02:18:51.072Z,17.3
2022-09-06T02:21:51.312Z,17.3
2022-09-06T02:24:51.520Z,17.3
2022-09-06T02:27:51.761Z,17.3
2022-09-06T02:30:52.210Z,17.3
2022-09-06T02:33:52.204Z,17.3
2022-09-06T02:36:52.416Z,17.3
2022-09-06T02:39:52.748Z,17
2022-09-06T02:42:52.872Z,17
2022-09-06T02:45:53.304Z,17
2022-09-06T02:48:53.296Z,17
2022-09-06T02:51:53.521Z,17
2022-09-06T02:54:53.757Z,17
2022-09-06T02:57:53.973Z,17
2022-09-06T03:00:54.293Z,17
2022-09-06T03:03:54.425Z,17
2022-09-06T03:06:54.649Z,17
2022-09-06T03:09:54.901Z,17
2022-09-06T03:12:55.084Z,17
2022-09-06T03:15:50.330Z,17
2022-09-06T03:18:50.529Z,17
2022-09-06T03:21:50.752Z,17
2022-09-06T03:24:55.968Z,16.7
2022-09-06T03:27:51.198Z,16.7
2022-09-06T03:30:51.754Z,16.7
2022-09-06T03:33:51.646Z,16.7
2022-09-06T03:36:51.858Z,16.7
2022-09-06T03:39:52.236Z,16.7
2022-09-06T03:42:52.308Z,16.7
2022-09-06T03:45:52.858Z,16.7
2022-09-06T03:48:52.749Z,16.7
2022-09-06T03:51:54.873Z,16.7
2022-09-06T03:54:53.190Z,16.7
2022-09-06T03:57:53.410Z,16.7
2022-09-06T04:00:53.764Z,16.7
2022-09-06T04:03:53.866Z,16.7
2022-09-06T04:06:54.087Z,16.5
2022-09-06T04:09:54.468Z,16.5
2022-09-06T04:12:54.539Z,16.5
2022-09-06T04:15:54.779Z,16.5
2022-09-06T04:18:54.981Z,16.5
2022-09-06T04:21:55.206Z,16.5
2022-09-06T04:24:55.411Z,16.5
2022-09-06T04:27:50.635Z,16.5
2022-09-06T04:31:05.408Z,16.5
2022-09-06T04:33:51.111Z,16.5
2022-09-06T04:36:51.322Z,16.5
2022-09-06T04:39:51.692Z,16.5
2022-09-06T04:42:51.751Z,16.5
2022-09-06T04:45:52.225Z,16.5
2022-09-06T04:48:52.193Z,16.5
2022-09-06T04:51:52.549Z,16.3
2022-09-06T04:54:52.768Z,16.3
2022-09-06T04:57:52.983Z,16.3
2022-09-06T05:00:53.542Z,16.3
2022-09-06T05:03:57.644Z,16.3
2022-09-06T05:06:53.652Z,16.3
2022-09-06T05:09:53.875Z,16.3
2022-09-06T05:12:54.106Z,16.3
2022-09-06T05:15:54.323Z,16.3
2022-09-06T05:18:54.535Z,16.3
2022-09-06T05:21:54.756Z,16.3
2022-09-06T05:24:54.985Z,16.3
2022-09-06T05:27:55.248Z,16.3
2022-09-06T05:30:50.429Z,16.3
2022-09-06T05:33:50.654Z,16.1
2022-09-06T05:36:55.855Z,16.1
2022-09-06T05:39:51.394Z,16.1
2022-09-06T05:42:51.330Z,16.1
2022-09-06T05:45:52.002Z,16.1
2022-09-06T05:48:51.742Z,16.1
2022-09-06T05:51:52.007Z,16.1
2022-09-06T05:54:52.198Z,16.1
2022-09-06T05:57:52.454Z,16.1
2022-09-06T06:00:52.859Z,16.1
2022-09-06T06:03:52.885Z,16.1
2022-09-06T06:06:53.066Z,16.1
2022-09-06T06:09:53.295Z,16.1
2022-09-06T06:12:53.502Z,16.1
2022-09-06T06:15:53.788Z,16.1
2022-09-06T06:18:53.988Z,16.1
2022-09-06T06:21:54.218Z,16.1
2022-09-06T06:24:54.421Z,16.1
2022-09-06T06:27:54.652Z,16.1
2022-09-06T06:30:54.922Z,16.1
2022-09-06T07:42:55.310Z,16.1
2022-09-06T07:45:50.475Z,16.1
2022-09-06T07:48:50.665Z,16.1
2022-09-06T07:51:50.973Z,16.1
2022-09-06T07:54:56.114Z,16.1
2022-09-06T07:57:51.354Z,16.1
2022-09-06T08:00:51.917Z,16.1
2022-09-06T08:03:51.841Z,16.1
2022-09-06T08:09:52.232Z,16.1
2022-09-06T08:12:52.415Z,16.1
2022-09-06T08:15:57.879Z,16.1
2022-09-06T08:18:52.887Z,16.1
2022-09-06T08:21:53.153Z,16.1
2022-09-06T08:24:53.309Z,16.1
2022-09-06T08:27:53.595Z,16.1
2022-09-06T08:30:53.794Z,16.1
2022-09-06T08:33:54.036Z,16.1
2022-09-06T08:36:54.197Z,16.1
2022-09-06T08:39:54.843Z,16.1
2022-09-06T09:51:54.792Z,16.2
2022-09-06T09:54:55.015Z,16.2
2022-09-06T09:57:55.200Z,16.2
2022-09-06T10:00:55.708Z,16.2
2022-09-06T10:04:46.251Z,16.2
2022-09-06T10:07:11.127Z,16.2
2022-09-06T10:09:51.211Z,16.2
2022-09-06T10:12:51.313Z,16.2
2022-09-06T10:15:51.819Z,16.2
2022-09-06T10:18:51.796Z,16.2
2022-09-06T10:21:52.002Z,16.2
2022-09-06T10:24:52.211Z,16.2
2022-09-06T10:28:12.346Z,16.2
2022-09-06T10:30:52.825Z,16.2
2022-09-06T10:33:52.842Z,16.4
2022-09-06T10:36:53.060Z,16.4
2022-09-06T10:39:58.610Z,16.4
2022-09-06T10:42:53.563Z,16.4
2022-09-06T10:45:53.739Z,16.4
2022-09-06T10:48:53.947Z,16.4
2022-09-06T10:51:54.233Z,16.4
2022-09-06T10:54:54.386Z,16.4
2022-09-06T10:58:20.891Z,16.4
2022-09-06T11:00:54.845Z,16.4
2022-09-06T11:04:13.019Z,16.4
2022-09-06T11:06:55.348Z,16.4
2022-09-06T11:09:55.540Z,16.4
2022-09-06T11:12:55.765Z,16.4
2022-09-06T11:15:51.236Z,16.4
2022-09-06T11:18:51.206Z,16.7
2022-09-06T11:21:51.434Z,16.7
2022-09-06T11:24:51.642Z,16.7
2022-09-06T11:27:58.496Z,16.7
2022-09-06T11:30:52.299Z,16.7
2022-09-06T11:33:52.305Z,16.7
2022-09-06T11:36:52.544Z,16.7
2022-09-06T11:42:52.961Z,16.7
2022-09-06T11:45:53.199Z,16.7
2022-09-06T11:48:53.432Z,16.7
2022-09-06T11:51:53.618Z,16.7
2022-09-06T11:54:53.961Z,16.7
2022-09-06T11:57:54.062Z,16.7
2022-09-06T12:00:54.268Z,16.7
2022-09-06T12:04:10.609Z,16.7
2022-09-06T12:06:54.730Z,16.7
2022-09-06T12:09:54.976Z,16.7
2022-09-06T12:12:55.182Z,16.7
2022-09-06T12:15:50.709Z,16.7
2022-09-06T14:09:53.836Z,17.1
2022-09-06T14:12:54.043Z,17.1
2022-09-06T14:15:54.715Z,17.1
2022-09-06T14:18:54.470Z,17.1
2022-09-06T14:21:54.734Z,17.1
2022-09-06T14:24:54.975Z,17.1
2022-09-06T14:27:55.216Z,17.1
2022-09-06T14:30:55.689Z,17.1
2022-09-06T14:33:55.659Z,17.1
2022-09-06T14:36:55.792Z,17.1
2022-09-06T14:39:51.275Z,17.1
2022-09-06T14:42:51.231Z,17.1
2022-09-06T14:45:51.620Z,17.1
2022-09-06T14:48:51.681Z,17.1
2022-09-06T14:51:51.881Z,17.6
2022-09-06T14:54:52.133Z,17.6
2022-09-06T14:57:52.392Z,17.6
2022-09-06T15:00:52.531Z,17.6
2022-09-06T15:03:52.748Z,17.6
2022-09-06T15:06:52.934Z,17.6
2022-09-06T15:09:53.247Z,17.6
2022-09-06T15:12:53.420Z,17.6
2022-09-06T15:15:53.859Z,17.6
2022-09-06T15:18:53.841Z,17.6
2022-09-06T15:21:54.100Z,17.6
2022-09-06T15:24:54.297Z,17.6
2022-09-06T15:27:54.570Z,17.6
2022-09-06T15:31:00.061Z,17.6
2022-09-06T15:33:54.982Z,17.6
2022-09-06T15:36:55.212Z,18.1
2022-09-06T15:39:56.059Z,18.1
2022-09-06T15:42:55.650Z,18.1
2022-09-06T15:45:56.062Z,18.1
2022-09-06T15:48:51.104Z,18.1
2022-09-06T15:51:51.316Z,18.1
2022-09-06T15:54:51.533Z,18.1
2022-09-06T15:57:51.714Z,18.1
2022-09-06T16:00:56.969Z,18.1
2022-09-06T16:03:52.285Z,18.1
2022-09-06T16:06:52.450Z,18.1
2022-09-06T16:09:52.704Z,18.1
2022-09-06T16:12:52.873Z,18.1
2022-09-06T16:15:53.138Z,18.1
2022-09-06T16:18:53.334Z,18.7
2022-09-06T16:21:53.550Z,18.7
2022-09-06T16:24:53.751Z,18.7
2022-09-06T16:27:53.982Z,18.7
2022-09-06T16:30:54.533Z,18.7
2022-09-06T16:33:54.408Z,18.7
2022-09-06T16:36:54.657Z,18.7
2022-09-06T16:39:55.271Z,18.7
2022-09-06T16:42:55.090Z,18.7
2022-09-06T16:45:55.682Z,18.7
2022-09-06T16:48:55.546Z,18.7
2022-09-06T16:51:50.904Z,18.7
2022-09-06T16:54:50.989Z,18.7
2022-09-06T16:57:56.192Z,18.7
2022-09-06T17:00:51.776Z,18.7
2022-09-06T17:03:52.247Z,19.1
2022-09-06T17:06:51.894Z,19.1
2022-09-06T17:09:52.702Z,19.1
2022-09-06T17:12:52.785Z,19.1
2022-09-06T17:15:52.942Z,19.1
2022-09-06T17:18:53.062Z,19.1
2022-09-06T17:21:53.357Z,19.1
2022-09-06T17:24:53.643Z,19.1
2022-09-06T17:27:54.004Z,19.1
2022-09-06T17:30:54.250Z,19.1
2022-09-06T17:33:54.299Z,19.1
2022-09-06T17:36:54.403Z,19.1
2022-09-06T17:39:55.531Z,19.1
2022-09-06T17:42:54.811Z,19.1
2022-09-06T17:45:55.553Z,19.4
2022-09-06T17:48:55.018Z,19.4
2022-09-06T17:51:55.254Z,19.4
2022-09-06T17:54:56.112Z,19.4
2022-09-06T17:57:51.347Z,19.4
2022-09-06T18:00:56.110Z,19.4
2022-09-06T18:03:56.374Z,19.4
2022-09-06T18:06:52.212Z,19.4
2022-09-06T18:09:51.843Z,19.4
2022-09-06T18:12:52.461Z,19.4
2022-09-06T18:15:52.023Z,19.4
2022-09-06T18:18:52.753Z,19.4
2022-09-06T18:21:52.490Z,19.4
2022-09-06T18:24:58.776Z,19.4
2022-09-06T18:27:52.947Z,19.4
2022-09-06T18:30:53.160Z,19.5
2022-09-06T18:33:53.325Z,19.5
2022-09-06T18:36:53.573Z,19.5
2022-09-06T18:39:54.091Z,19.5
2022-09-06T18:42:54.034Z,19.5
2022-09-06T18:45:54.656Z,19.5
2022-09-06T18:48:54.497Z,19.5
2022-09-06T18:51:54.681Z,19.5
2022-09-06T18:54:54.898Z,19.5
2022-09-06T18:57:55.106Z,19.5
2022-09-06T19:00:55.708Z,19.5
2022-09-06T19:03:55.564Z,19.5
2022-09-06T19:06:50.812Z,19.5
2022-09-06T19:09:51.006Z,19.5
2022-09-06T19:12:53.736Z,19.6
2022-09-06T19:15:51.638Z,19.6
2022-09-06T19:18:51.753Z,19.6
2022-09-06T19:21:51.923Z,19.6
2022-09-06T19:24:52.129Z,19.6
2022-09-06T19:27:52.344Z,19.6
2022-09-06T19:30:52.565Z,19.6
2022-09-06T19:33:52.843Z,19.6
2022-09-06T19:36:53.036Z,19.6
2022-09-06T19:39:53.603Z,19.6
2022-09-06T19:42:53.468Z,19.6
2022-09-06T19:45:53.567Z,19.6
2022-09-06T19:48:53.792Z,19.6
2022-09-06T19:51:54.020Z,19.6
2022-09-06T19:54:54.244Z,19.6
2022-09-06T19:57:54.477Z,19.4
2022-09-06T20:00:54.721Z,19.4
2022-09-06T20:03:54.918Z,19.4
2022-09-06T20:06:55.124Z,19.4
2022-09-06T20:09:55.407Z,19.4
2022-09-06T20:12:50.566Z,19.4
2022-09-06T20:15:55.909Z,19.4
2022-09-06T20:18:51.220Z,19.4
2022-09-06T20:21:51.233Z,19.4
2022-09-06T20:24:51.485Z,19.4
2022-09-06T20:27:51.699Z,19.4
2022-09-06T20:30:51.992Z,19.4
2022-09-06T20:33:52.121Z,19.4
2022-09-06T20:36:52.605Z,19.4
2022-09-06T20:39:52.715Z,19.2
2022-09-06T20:42:52.792Z,19.2
2022-09-06T20:45:53.020Z,19.2
2022-09-06T20:48:53.256Z,19.2
2022-09-06T20:51:53.459Z,19.2
2022-09-06T20:54:53.692Z,19.2
2022-09-06T20:57:53.897Z,19.2
2022-09-06T21:00:59.278Z,19.2
2022-09-06T21:03:54.332Z,19.2
2022-09-06T21:06:54.568Z,19.2
2022-09-06T21:09:54.802Z,19.2
2022-09-06T21:12:55.009Z,19.2
2022-09-06T21:15:55.369Z,19.2
2022-09-06T21:18:50.492Z,19.2
2022-09-06T21:21:50.678Z,19.2
2022-09-06T21:24:50.896Z,19.2
2022-09-06T21:27:56.045Z,19.2
2022-09-06T21:31:11.534Z,19.2
2022-09-06T21:33:51.559Z,19.2
2022-09-06T21:36:51.782Z,19.2
2022-09-06T22:07:04.175Z,18.8
2022-09-06T22:09:54.228Z,18.8
2022-09-06T22:12:54.460Z,18.8
2022-09-06T22:15:54.778Z,18.8
2022-09-06T22:18:54.911Z,18.8
2022-09-06T22:21:55.124Z,18.8
2022-09-06T22:24:50.321Z,18.8
2022-09-06T22:27:50.581Z,18.8
2022-09-06T22:30:50.783Z,18.8
2022-09-06T22:33:51.015Z,18.8
2022-09-06T22:36:51.236Z,18.8
2022-09-06T22:39:51.646Z,18.8
2022-09-06T22:42:51.732Z,18.8
2022-09-06T22:45:52.402Z,18.8
2022-09-06T22:48:52.136Z,18.4
2022-09-06T22:51:52.341Z,18.4
2022-09-06T22:54:52.605Z,18.4
2022-09-06T22:57:52.767Z,18.4
2022-09-06T23:00:53.197Z,18.4
2022-09-06T23:03:53.207Z,18.4
2022-09-06T23:06:53.436Z,18.4
2022-09-06T23:09:53.663Z,18.4
2022-09-06T23:12:53.890Z,18.4
2022-09-06T23:15:54.284Z,18.4
2022-09-06T23:18:54.348Z,18.4
2022-09-06T23:21:54.539Z,18.4
2022-09-06T23:24:54.775Z,18.4
2022-09-06T23:27:54.960Z,18.4
2022-09-06T23:30:55.227Z,18
2022-09-06T23:33:55.449Z,18
2022-09-06T23:36:50.658Z,18
2022-09-06T23:39:51.004Z,18
2022-09-06T23:42:51.114Z,18
2022-09-06T23:45:51.331Z,18
2022-09-06T23:48:51.589Z,18
2022-09-06T23:51:51.775Z,18
2022-09-06T23:54:52.020Z,18
2022-09-06T23:57:52.254Z,18
